sensor_id;sensor_type;location;lat;lon;timestamp;pressure;altitude;pressure_sealevel;temperature;humidity
12182;BME280;6154;51.550;12.138;2022-08-01T00:01:29;100226.38;;;25.95;52.33
12182;BME280;6154;51.550;12.138;2022-08-01T00:03:58;100230.13;;;25.94;52.22
12182;BME280;6154;51.550;12.138;2022-08-01T00:06:27;100235.41;;;25.96;52.26
12182;BME280;6154;51.550;12.138;2022-08-01T00:08:55;100240.81;;;25.96;52.22
12182;BME280;6154;51.550;12.138;2022-08-01T00:11:23;100242.50;;;25.97;52.55
12182;BME280;6154;51.550;12.138;2022-08-01T00:13:52;100242.84;;;25.94;52.72
12182;BME280;6154;51.550;12.138;2022-08-01T00:16:20;100253.06;;;25.92;53.26
12182;BME280;6154;51.550;12.138;2022-08-01T00:18:51;100255.50;;;25.87;53.96
12182;BME280;6154;51.550;12.138;2022-08-01T00:21:19;100253.09;;;25.77;54.38
12182;BME280;6154;51.550;12.138;2022-08-01T00:23:47;100253.63;;;25.72;54.16
12182;BME280;6154;51.550;12.138;2022-08-01T00:26:15;100257.37;;;25.71;54.54
12182;BME280;6154;51.550;12.138;2022-08-01T00:28:43;100259.06;;;25.72;54.58
12182;BME280;6154;51.550;12.138;2022-08-01T00:31:11;100256.69;;;25.69;55.13
12182;BME280;6154;51.550;12.138;2022-08-01T00:33:39;100256.22;;;25.66;55.18
12182;BME280;6154;51.550;12.138;2022-08-01T00:36:09;100257.16;;;25.58;55.57
12182;BME280;6154;51.550;12.138;2022-08-01T00:38:37;100254.44;;;25.58;55.53
12182;BME280;6154;51.550;12.138;2022-08-01T00:41:05;100242.94;;;25.56;55.67
12182;BME280;6154;51.550;12.138;2022-08-01T00:43:33;100240.69;;;25.60;54.93
12182;BME280;6154;51.550;12.138;2022-08-01T00:46:01;100239.84;;;25.59;55.08
12182;BME280;6154;51.550;12.138;2022-08-01T00:48:29;100232.75;;;25.58;55.04
12182;BME280;6154;51.550;12.138;2022-08-01T00:50:57;100238.38;;;25.57;55.12
12182;BME280;6154;51.550;12.138;2022-08-01T00:53:26;100235.16;;;25.53;55.27
12182;BME280;6154;51.550;12.138;2022-08-01T00:56:15;100236.78;;;25.47;55.37
12182;BME280;6154;51.550;12.138;2022-08-01T00:58:43;100241.34;;;25.47;55.02
12182;BME280;6154;51.550;12.138;2022-08-01T01:01:11;100228.84;;;25.46;55.03
12182;BME280;6154;51.550;12.138;2022-08-01T01:03:39;100234.59;;;25.43;55.78
12182;BME280;6154;51.550;12.138;2022-08-01T01:06:30;100234.78;;;25.41;55.12
12182;BME280;6154;51.550;12.138;2022-08-01T01:09:15;100229.75;;;25.38;55.57
12182;BME280;6154;51.550;12.138;2022-08-01T01:11:49;100225.16;;;25.39;57.31
12182;BME280;6154;51.550;12.138;2022-08-01T01:14:31;100227.88;;;25.39;55.70
12182;BME280;6154;51.550;12.138;2022-08-01T01:17:02;100222.84;;;25.36;56.28
12182;BME280;6154;51.550;12.138;2022-08-01T01:19:33;100225.56;;;25.36;55.51
12182;BME280;6154;51.550;12.138;2022-08-01T01:22:22;100230.97;;;25.36;55.28
12182;BME280;6154;51.550;12.138;2022-08-01T01:25:03;100217.69;;;25.41;57.33
12182;BME280;6154;51.550;12.138;2022-08-01T01:27:41;100224.78;;;25.42;56.11
12182;BME280;6154;51.550;12.138;2022-08-01T01:30:14;100223.94;;;25.41;55.44
12182;BME280;6154;51.550;12.138;2022-08-01T01:32:45;100225.81;;;25.41;54.76
12182;BME280;6154;51.550;12.138;2022-08-01T01:35:17;100230.22;;;25.42;55.00
12182;BME280;6154;51.550;12.138;2022-08-01T01:37:49;100220.97;;;25.36;55.84
12182;BME280;6154;51.550;12.138;2022-08-01T01:40:19;100223.00;;;25.34;55.26
12182;BME280;6154;51.550;12.138;2022-08-01T01:42:49;100226.94;;;25.32;54.59
12182;BME280;6154;51.550;12.138;2022-08-01T01:45:21;100232.53;;;25.30;54.40
12182;BME280;6154;51.550;12.138;2022-08-01T01:47:52;100232.91;;;25.27;55.05
12182;BME280;6154;51.550;12.138;2022-08-01T01:50:22;100235.97;;;25.24;54.20
12182;BME280;6154;51.550;12.138;2022-08-01T01:52:52;100230.09;;;25.20;54.72
12182;BME280;6154;51.550;12.138;2022-08-01T01:55:21;100235.25;;;25.15;55.27
12182;BME280;6154;51.550;12.138;2022-08-01T01:57:52;100230.16;;;25.12;55.07
12182;BME280;6154;51.550;12.138;2022-08-01T02:00:23;100221.56;;;25.09;54.88
12182;BME280;6154;51.550;12.138;2022-08-01T02:02:53;100222.78;;;25.06;54.94
12182;BME280;6154;51.550;12.138;2022-08-01T02:05:22;100223.00;;;24.97;56.06
12182;BME280;6154;51.550;12.138;2022-08-01T02:07:53;100222.88;;;24.90;55.28
12182;BME280;6154;51.550;12.138;2022-08-01T02:10:26;100232.41;;;24.86;55.56
12182;BME280;6154;51.550;12.138;2022-08-01T02:12:57;100234.09;;;24.87;55.39
12182;BME280;6154;51.550;12.138;2022-08-01T02:15:29;100221.41;;;24.87;55.74
12182;BME280;6154;51.550;12.138;2022-08-01T02:17:58;100225.78;;;24.88;56.09
12182;BME280;6154;51.550;12.138;2022-08-01T02:20:29;100226.63;;;24.89;55.59
12182;BME280;6154;51.550;12.138;2022-08-01T02:23:03;100224.94;;;24.88;56.27
12182;BME280;6154;51.550;12.138;2022-08-01T02:25:36;100226.81;;;24.87;56.81
12182;BME280;6154;51.550;12.138;2022-08-01T02:28:29;100225.78;;;24.88;55.91
12182;BME280;6154;51.550;12.138;2022-08-01T02:31:01;100222.50;;;24.93;56.41
12182;BME280;6154;51.550;12.138;2022-08-01T02:33:34;100221.88;;;24.91;56.36
12182;BME280;6154;51.550;12.138;2022-08-01T02:36:05;100224.19;;;24.94;56.84
12182;BME280;6154;51.550;12.138;2022-08-01T02:38:55;100234.56;;;24.90;56.55
12182;BME280;6154;51.550;12.138;2022-08-01T02:41:26;100233.53;;;24.91;56.60
12182;BME280;6154;51.550;12.138;2022-08-01T02:43:59;100239.59;;;24.93;56.54
12182;BME280;6154;51.550;12.138;2022-08-01T02:46:36;100231.66;;;24.92;57.00
12182;BME280;6154;51.550;12.138;2022-08-01T02:49:07;100235.59;;;24.89;58.49
12182;BME280;6154;51.550;12.138;2022-08-01T02:51:38;100238.09;;;24.91;56.92
12182;BME280;6154;51.550;12.138;2022-08-01T02:54:08;100240.44;;;24.94;57.06
12182;BME280;6154;51.550;12.138;2022-08-01T02:56:38;100242.81;;;24.97;56.81
12182;BME280;6154;51.550;12.138;2022-08-01T02:59:10;100243.34;;;24.92;57.43
12182;BME280;6154;51.550;12.138;2022-08-01T03:01:42;100235.03;;;24.94;57.20
12182;BME280;6154;51.550;12.138;2022-08-01T03:04:11;100240.28;;;24.96;57.08
12182;BME280;6154;51.550;12.138;2022-08-01T03:06:40;100240.94;;;24.98;57.13
12182;BME280;6154;51.550;12.138;2022-08-01T03:09:11;100244.13;;;25.01;56.79
12182;BME280;6154;51.550;12.138;2022-08-01T03:11:44;100254.59;;;25.04;56.55
12182;BME280;6154;51.550;12.138;2022-08-01T03:14:13;100240.72;;;25.07;56.54
12182;BME280;6154;51.550;12.138;2022-08-01T03:16:44;100240.03;;;25.05;57.79
12182;BME280;6154;51.550;12.138;2022-08-01T03:19:15;100251.56;;;25.07;57.10
12182;BME280;6154;51.550;12.138;2022-08-01T03:21:46;100253.47;;;24.99;58.02
12182;BME280;6154;51.550;12.138;2022-08-01T03:24:16;100261.06;;;25.03;57.01
12182;BME280;6154;51.550;12.138;2022-08-01T03:26:46;100260.87;;;25.05;57.07
12182;BME280;6154;51.550;12.138;2022-08-01T03:29:17;100259.88;;;25.06;57.05
12182;BME280;6154;51.550;12.138;2022-08-01T03:31:49;100262.41;;;25.07;57.45
12182;BME280;6154;51.550;12.138;2022-08-01T03:34:18;100261.72;;;25.05;57.37
12182;BME280;6154;51.550;12.138;2022-08-01T03:36:53;100259.38;;;25.02;57.46
12182;BME280;6154;51.550;12.138;2022-08-01T03:39:28;100270.72;;;25.06;57.79
12182;BME280;6154;51.550;12.138;2022-08-01T03:42:01;100282.53;;;25.05;58.81
12182;BME280;6154;51.550;12.138;2022-08-01T03:44:35;100270.84;;;25.04;57.86
12182;BME280;6154;51.550;12.138;2022-08-01T03:47:09;100276.59;;;25.09;57.63
12182;BME280;6154;51.550;12.138;2022-08-01T03:49:41;100286.97;;;25.06;57.96
12182;BME280;6154;51.550;12.138;2022-08-01T03:52:11;100273.22;;;25.07;57.99
12182;BME280;6154;51.550;12.138;2022-08-01T03:54:43;100276.59;;;25.09;57.63
12182;BME280;6154;51.550;12.138;2022-08-01T03:57:14;100270.50;;;25.07;58.95
12182;BME280;6154;51.550;12.138;2022-08-01T04:00:05;100271.19;;;25.01;59.27
12182;BME280;6154;51.550;12.138;2022-08-01T04:02:39;100278.34;;;24.94;60.12
12182;BME280;6154;51.550;12.138;2022-08-01T04:05:08;100277.50;;;24.93;60.03
12182;BME280;6154;51.550;12.138;2022-08-01T04:07:37;100280.91;;;24.96;59.14
12182;BME280;6154;51.550;12.138;2022-08-01T04:10:06;100285.13;;;24.98;59.09
12182;BME280;6154;51.550;12.138;2022-08-01T04:12:35;100285.13;;;24.98;59.10
12182;BME280;6154;51.550;12.138;2022-08-01T04:15:03;100283.50;;;24.89;60.72
12182;BME280;6154;51.550;12.138;2022-08-01T04:17:31;100276.41;;;24.88;60.02
12182;BME280;6154;51.550;12.138;2022-08-01T04:20:01;100286.06;;;24.82;61.14
12182;BME280;6154;51.550;12.138;2022-08-01T04:22:29;100281.81;;;24.88;61.54
12182;BME280;6154;51.550;12.138;2022-08-01T04:25:07;100279.94;;;24.88;61.41
12182;BME280;6154;51.550;12.138;2022-08-01T04:27:40;100281.25;;;24.92;61.66
12182;BME280;6154;51.550;12.138;2022-08-01T04:30:19;100284.47;;;24.96;61.26
12182;BME280;6154;51.550;12.138;2022-08-01T04:32:49;100278.16;;;25.04;60.21
12182;BME280;6154;51.550;12.138;2022-08-01T04:35:20;100276.59;;;25.09;60.12
12182;BME280;6154;51.550;12.138;2022-08-01T04:38:10;100274.16;;;25.14;59.42
12182;BME280;6154;51.550;12.138;2022-08-01T04:40:41;100284.47;;;25.19;59.93
12182;BME280;6154;51.550;12.138;2022-08-01T04:43:10;100289.13;;;25.25;58.95
12182;BME280;6154;51.550;12.138;2022-08-01T04:45:42;100296.72;;;25.30;59.49
12182;BME280;6154;51.550;12.138;2022-08-01T04:48:12;100296.66;;;25.38;59.32
12182;BME280;6154;51.550;12.138;2022-08-01T04:50:42;100296.75;;;25.44;59.45
12182;BME280;6154;51.550;12.138;2022-08-01T04:53:12;100296.47;;;25.54;59.12
12182;BME280;6154;51.550;12.138;2022-08-01T04:55:41;100306.59;;;25.60;59.78
12182;BME280;6154;51.550;12.138;2022-08-01T04:58:09;100299.97;;;25.63;59.54
12182;BME280;6154;51.550;12.138;2022-08-01T05:00:43;100305.69;;;25.68;59.17
12182;BME280;6154;51.550;12.138;2022-08-01T05:03:11;100298.03;;;25.71;59.36
12182;BME280;6154;51.550;12.138;2022-08-01T05:05:39;100299.38;;;25.75;59.66
12182;BME280;6154;51.550;12.138;2022-08-01T05:08:09;100301.31;;;25.82;59.02
12182;BME280;6154;51.550;12.138;2022-08-01T05:10:36;100300.78;;;25.86;58.61
12182;BME280;6154;51.550;12.138;2022-08-01T05:13:04;100305.44;;;25.92;58.53
12182;BME280;6154;51.550;12.138;2022-08-01T05:15:34;100303.22;;;25.96;59.04
12182;BME280;6154;51.550;12.138;2022-08-01T05:18:03;100298.88;;;26.01;59.26
12182;BME280;6154;51.550;12.138;2022-08-01T05:20:34;100301.91;;;26.06;59.22
12182;BME280;6154;51.550;12.138;2022-08-01T05:23:03;100297.87;;;26.17;59.16
12182;BME280;6154;51.550;12.138;2022-08-01T05:25:33;100303.06;;;26.33;58.89
12182;BME280;6154;51.550;12.138;2022-08-01T05:28:21;100294.19;;;26.40;60.00
12182;BME280;6154;51.550;12.138;2022-08-01T05:30:49;100297.28;;;26.36;60.28
12182;BME280;6154;51.550;12.138;2022-08-01T05:33:17;100301.13;;;26.42;59.98
12182;BME280;6154;51.550;12.138;2022-08-01T05:35:47;100305.00;;;26.54;60.03
12182;BME280;6154;51.550;12.138;2022-08-01T05:38:15;100298.37;;;26.57;60.31
12182;BME280;6154;51.550;12.138;2022-08-01T05:40:45;100304.16;;;26.69;59.66
12182;BME280;6154;51.550;12.138;2022-08-01T05:43:13;100309.00;;;26.94;59.05
12182;BME280;6154;51.550;12.138;2022-08-01T05:45:41;100299.16;;;27.08;59.05
12182;BME280;6154;51.550;12.138;2022-08-01T05:48:09;100305.81;;;27.27;58.47
12182;BME280;6154;51.550;12.138;2022-08-01T05:50:37;100305.41;;;27.30;58.57
12182;BME280;6154;51.550;12.138;2022-08-01T05:53:05;100303.12;;;27.34;58.22
12182;BME280;6154;51.550;12.138;2022-08-01T05:55:34;100295.44;;;27.37;58.30
12182;BME280;6154;51.550;12.138;2022-08-01T05:58:04;100306.59;;;27.49;57.95
12182;BME280;6154;51.550;12.138;2022-08-01T06:00:32;100303.69;;;27.50;57.93
12182;BME280;6154;51.550;12.138;2022-08-01T06:03:00;100296.28;;;27.44;58.10
12182;BME280;6154;51.550;12.138;2022-08-01T06:05:28;100308.47;;;27.48;57.91
12182;BME280;6154;51.550;12.138;2022-08-01T06:07:56;100309.66;;;27.39;58.42
12182;BME280;6154;51.550;12.138;2022-08-01T06:10:24;100303.25;;;27.47;57.89
12182;BME280;6154;51.550;12.138;2022-08-01T06:12:53;100310.66;;;27.60;57.45
12182;BME280;6154;51.550;12.138;2022-08-01T06:15:22;100306.56;;;27.70;57.30
12182;BME280;6154;51.550;12.138;2022-08-01T06:17:50;100309.72;;;27.74;57.17
12182;BME280;6154;51.550;12.138;2022-08-01T06:20:18;100313.94;;;27.76;57.43
12182;BME280;6154;51.550;12.138;2022-08-01T06:22:46;100311.94;;;27.64;57.52
12182;BME280;6154;51.550;12.138;2022-08-01T06:25:18;100315.78;;;27.69;57.09
12182;BME280;6154;51.550;12.138;2022-08-01T06:27:47;100321.63;;;27.66;56.90
12182;BME280;6154;51.550;12.138;2022-08-01T06:30:16;100321.38;;;27.40;57.41
12182;BME280;6154;51.550;12.138;2022-08-01T06:32:45;100324.81;;;27.27;57.45
12182;BME280;6154;51.550;12.138;2022-08-01T06:35:14;100332.31;;;27.04;58.30
12182;BME280;6154;51.550;12.138;2022-08-01T06:37:42;100323.62;;;26.93;58.33
12182;BME280;6154;51.550;12.138;2022-08-01T06:40:12;100327.34;;;26.71;59.15
12182;BME280;6154;51.550;12.138;2022-08-01T06:42:43;100334.94;;;26.76;59.06
12182;BME280;6154;51.550;12.138;2022-08-01T06:45:14;100337.72;;;26.82;58.49
12182;BME280;6154;51.550;12.138;2022-08-01T06:47:43;100337.19;;;26.93;58.12
12182;BME280;6154;51.550;12.138;2022-08-01T06:50:18;100347.09;;;27.16;57.55
12182;BME280;6154;51.550;12.138;2022-08-01T06:52:46;100346.81;;;27.11;58.02
12182;BME280;6154;51.550;12.138;2022-08-01T06:55:14;100348.13;;;27.36;57.16
12182;BME280;6154;51.550;12.138;2022-08-01T06:57:46;100354.31;;;27.30;57.60
12182;BME280;6154;51.550;12.138;2022-08-01T07:00:16;100355.25;;;26.65;59.60
12182;BME280;6154;51.550;12.138;2022-08-01T07:02:45;100359.06;;;26.49;60.64
12182;BME280;6154;51.550;12.138;2022-08-01T07:05:13;100356.28;;;26.79;59.67
12182;BME280;6154;51.550;12.138;2022-08-01T07:07:43;100353.13;;;26.97;59.07
12182;BME280;6154;51.550;12.138;2022-08-01T07:10:11;100353.16;;;27.39;57.79
12182;BME280;6154;51.550;12.138;2022-08-01T07:12:40;100361.41;;;27.53;57.41
12182;BME280;6154;51.550;12.138;2022-08-01T07:15:09;100355.44;;;27.64;57.15
12182;BME280;6154;51.550;12.138;2022-08-01T07:17:38;100355.53;;;27.70;56.96
12182;BME280;6154;51.550;12.138;2022-08-01T07:20:07;100355.13;;;27.73;56.97
12182;BME280;6154;51.550;12.138;2022-08-01T07:22:37;100360.03;;;27.63;57.21
12182;BME280;6154;51.550;12.138;2022-08-01T07:25:07;100358.84;;;27.66;57.13
12182;BME280;6154;51.550;12.138;2022-08-01T07:27:36;100358.47;;;27.69;56.46
12182;BME280;6154;51.550;12.138;2022-08-01T07:30:06;100353.03;;;27.69;56.66
12182;BME280;6154;51.550;12.138;2022-08-01T07:32:34;100357.50;;;27.83;56.52
12182;BME280;6154;51.550;12.138;2022-08-01T07:35:02;100352.00;;;28.04;55.99
12182;BME280;6154;51.550;12.138;2022-08-01T07:37:31;100358.38;;;28.25;55.59
12182;BME280;6154;51.550;12.138;2022-08-01T07:40:16;100358.47;;;28.31;55.43
12182;BME280;6154;51.550;12.138;2022-08-01T07:42:45;100365.78;;;27.96;55.06
12182;BME280;6154;51.550;12.138;2022-08-01T07:45:14;100360.34;;;28.03;54.94
12182;BME280;6154;51.550;12.138;2022-08-01T07:47:42;100356.09;;;27.87;55.54
12182;BME280;6154;51.550;12.138;2022-08-01T07:50:11;100363.84;;;27.90;55.54
12182;BME280;6154;51.550;12.138;2022-08-01T07:52:40;100360.13;;;27.98;55.12
12182;BME280;6154;51.550;12.138;2022-08-01T07:55:09;100372.59;;;28.55;54.46
12182;BME280;6154;51.550;12.138;2022-08-01T07:57:38;100375.78;;;28.58;54.48
12182;BME280;6154;51.550;12.138;2022-08-01T08:00:07;100368.28;;;28.74;53.71
12182;BME280;6154;51.550;12.138;2022-08-01T08:02:36;100369.22;;;28.94;53.72
12182;BME280;6154;51.550;12.138;2022-08-01T08:05:05;100368.59;;;29.05;53.61
12182;BME280;6154;51.550;12.138;2022-08-01T08:07:34;100370.81;;;28.82;53.43
12182;BME280;6154;51.550;12.138;2022-08-01T08:10:03;100365.66;;;28.94;53.48
12182;BME280;6154;51.550;12.138;2022-08-01T08:12:32;100367.97;;;28.97;53.23
12182;BME280;6154;51.550;12.138;2022-08-01T08:15:01;100365.87;;;28.99;53.23
12182;BME280;6154;51.550;12.138;2022-08-01T08:17:32;100368.81;;;28.97;52.98
12182;BME280;6154;51.550;12.138;2022-08-01T08:20:03;100378.28;;;28.60;53.65
12182;BME280;6154;51.550;12.138;2022-08-01T08:22:36;100369.44;;;28.51;53.99
12182;BME280;6154;51.550;12.138;2022-08-01T08:25:05;100371.59;;;28.62;53.76
12182;BME280;6154;51.550;12.138;2022-08-01T08:27:33;100368.53;;;28.85;53.58
12182;BME280;6154;51.550;12.138;2022-08-01T08:30:06;100366.78;;;29.39;52.95
12182;BME280;6154;51.550;12.138;2022-08-01T08:32:35;100378.78;;;29.77;51.75
12182;BME280;6154;51.550;12.138;2022-08-01T08:35:04;100383.97;;;29.46;51.74
12182;BME280;6154;51.550;12.138;2022-08-01T08:37:34;100381.72;;;29.50;51.60
12182;BME280;6154;51.550;12.138;2022-08-01T08:40:14;100378.56;;;29.92;51.25
12182;BME280;6154;51.550;12.138;2022-08-01T08:42:42;100370.53;;;30.04;51.23
12182;BME280;6154;51.550;12.138;2022-08-01T08:45:12;100384.84;;;29.93;51.03
12182;BME280;6154;51.550;12.138;2022-08-01T08:47:41;100383.81;;;29.81;50.83
12182;BME280;6154;51.550;12.138;2022-08-01T08:50:13;100377.28;;;30.21;50.78
12182;BME280;6154;51.550;12.138;2022-08-01T08:52:43;100384.69;;;30.66;50.02
12182;BME280;6154;51.550;12.138;2022-08-01T08:55:12;100387.47;;;30.46;49.99
12182;BME280;6154;51.550;12.138;2022-08-01T08:57:43;100402.03;;;30.33;50.65
12182;BME280;6154;51.550;12.138;2022-08-01T09:00:14;100405.78;;;29.46;51.24
12182;BME280;6154;51.550;12.138;2022-08-01T09:02:44;100422.09;;;29.06;52.01
12182;BME280;6154;51.550;12.138;2022-08-01T09:05:13;100419.75;;;28.55;52.90
12182;BME280;6154;51.550;12.138;2022-08-01T09:07:45;100429.25;;;28.73;52.95
12182;BME280;6154;51.550;12.138;2022-08-01T09:10:13;100436.09;;;28.55;53.29
12182;BME280;6154;51.550;12.138;2022-08-01T09:13:03;100441.00;;;28.32;53.67
12182;BME280;6154;51.550;12.138;2022-08-01T09:15:40;100435.81;;;28.16;53.46
12182;BME280;6154;51.550;12.138;2022-08-01T09:18:09;100436.84;;;28.36;53.19
12182;BME280;6154;51.550;12.138;2022-08-01T09:21:07;100432.34;;;28.56;53.10
12182;BME280;6154;51.550;12.138;2022-08-01T09:23:37;100429.03;;;29.15;52.66
12182;BME280;6154;51.550;12.138;2022-08-01T09:26:22;100424.47;;;29.36;52.08
12182;BME280;6154;51.550;12.138;2022-08-01T09:28:56;100425.78;;;29.86;51.64
12182;BME280;6154;51.550;12.138;2022-08-01T09:31:28;100419.72;;;30.17;50.85
12182;BME280;6154;51.550;12.138;2022-08-01T09:34:04;100424.28;;;30.43;50.66
12182;BME280;6154;51.550;12.138;2022-08-01T09:36:46;100426.16;;;30.49;50.10
12182;BME280;6154;51.550;12.138;2022-08-01T09:39:21;100427.47;;;30.27;48.61
12182;BME280;6154;51.550;12.138;2022-08-01T09:41:50;100427.41;;;30.67;50.11
12182;BME280;6154;51.550;12.138;2022-08-01T09:44:37;100429.63;;;30.89;49.63
12182;BME280;6154;51.550;12.138;2022-08-01T09:47:12;100436.00;;;30.70;47.20
12182;BME280;6154;51.550;12.138;2022-08-01T09:49:42;100431.62;;;30.43;48.32
12182;BME280;6154;51.550;12.138;2022-08-01T09:52:19;100442.41;;;30.18;47.95
12182;BME280;6154;51.550;12.138;2022-08-01T09:54:53;100431.59;;;30.56;49.05
12182;BME280;6154;51.550;12.138;2022-08-01T09:57:22;100439.78;;;30.62;48.52
12182;BME280;6154;51.550;12.138;2022-08-01T09:59:52;100424.44;;;30.68;48.27
12182;BME280;6154;51.550;12.138;2022-08-01T10:02:30;100433.41;;;30.82;48.08
12182;BME280;6154;51.550;12.138;2022-08-01T10:05:01;100429.84;;;30.81;47.36
12182;BME280;6154;51.550;12.138;2022-08-01T10:07:35;100433.06;;;30.52;46.84
12182;BME280;6154;51.550;12.138;2022-08-01T10:10:11;100434.47;;;30.87;47.67
12182;BME280;6154;51.550;12.138;2022-08-01T10:12:41;100425.28;;;30.69;46.78
12182;BME280;6154;51.550;12.138;2022-08-01T10:15:14;100428.34;;;30.85;46.85
12182;BME280;6154;51.550;12.138;2022-08-01T10:17:55;100429.97;;;31.00;46.14
12182;BME280;6154;51.550;12.138;2022-08-01T10:20:26;100432.50;;;30.95;44.85
12182;BME280;6154;51.550;12.138;2022-08-01T10:22:59;100441.19;;;30.85;46.90
12182;BME280;6154;51.550;12.138;2022-08-01T10:25:35;100441.16;;;30.92;46.88
12182;BME280;6154;51.550;12.138;2022-08-01T10:28:14;100449.22;;;30.73;45.73
12182;BME280;6154;51.550;12.138;2022-08-01T10:30:47;100445.19;;;30.89;45.98
12182;BME280;6154;51.550;12.138;2022-08-01T10:33:21;100445.25;;;30.56;46.37
12182;BME280;6154;51.550;12.138;2022-08-01T10:36:09;100453.25;;;30.57;45.71
12182;BME280;6154;51.550;12.138;2022-08-01T10:38:39;100453.69;;;30.48;46.46
12182;BME280;6154;51.550;12.138;2022-08-01T10:41:09;100442.97;;;31.11;46.80
12182;BME280;6154;51.550;12.138;2022-08-01T10:43:42;100445.44;;;31.19;46.71
12182;BME280;6154;51.550;12.138;2022-08-01T10:46:12;100442.09;;;31.17;46.67
12182;BME280;6154;51.550;12.138;2022-08-01T10:48:45;100442.72;;;31.19;46.30
12182;BME280;6154;51.550;12.138;2022-08-01T10:51:18;100439.63;;;31.79;45.20
12182;BME280;6154;51.550;12.138;2022-08-01T10:53:53;100441.13;;;31.99;45.64
12182;BME280;6154;51.550;12.138;2022-08-01T10:56:38;100451.47;;;31.66;45.89
12182;BME280;6154;51.550;12.138;2022-08-01T10:59:08;100447.25;;;31.38;45.34
12182;BME280;6154;51.550;12.138;2022-08-01T11:01:38;100448.22;;;31.51;47.03
12182;BME280;6154;51.550;12.138;2022-08-01T11:04:13;100454.09;;;31.54;47.08
12182;BME280;6154;51.550;12.138;2022-08-01T11:07:02;100453.97;;;31.42;46.61
12182;BME280;6154;51.550;12.138;2022-08-01T11:09:41;100460.03;;;31.44;45.87
12182;BME280;6154;51.550;12.138;2022-08-01T11:12:17;100458.25;;;31.63;45.48
12182;BME280;6154;51.550;12.138;2022-08-01T11:15:18;100453.19;;;31.67;46.71
12182;BME280;6154;51.550;12.138;2022-08-01T11:17:58;100451.47;;;31.66;45.06
12182;BME280;6154;51.550;12.138;2022-08-01T11:20:30;100459.31;;;31.31;46.45
12182;BME280;6154;51.550;12.138;2022-08-01T11:23:25;100464.37;;;31.27;45.94
12182;BME280;6154;51.550;12.138;2022-08-01T11:26:16;100457.37;;;31.38;44.73
12182;BME280;6154;51.550;12.138;2022-08-01T11:29:13;100456.91;;;31.79;44.15
12182;BME280;6154;51.550;12.138;2022-08-01T11:31:49;100463.09;;;31.93;43.43
12182;BME280;6154;51.550;12.138;2022-08-01T11:34:19;100460.59;;;32.59;45.35
12182;BME280;6154;51.550;12.138;2022-08-01T11:36:48;100455.22;;;32.46;44.71
12182;BME280;6154;51.550;12.138;2022-08-01T11:39:25;100460.78;;;32.15;44.66
12182;BME280;6154;51.550;12.138;2022-08-01T11:41:55;100468.25;;;32.26;45.30
12182;BME280;6154;51.550;12.138;2022-08-01T11:44:50;100459.56;;;32.11;45.20
12182;BME280;6154;51.550;12.138;2022-08-01T11:47:18;100460.75;;;31.65;43.34
12182;BME280;6154;51.550;12.138;2022-08-01T11:50:30;100460.63;;;31.85;45.54
12182;BME280;6154;51.550;12.138;2022-08-01T11:53:00;100463.69;;;31.70;43.74
12182;BME280;6154;51.550;12.138;2022-08-01T11:55:29;100460.84;;;31.83;44.63
12182;BME280;6154;51.550;12.138;2022-08-01T11:57:59;100470.94;;;31.89;45.44
12182;BME280;6154;51.550;12.138;2022-08-01T12:00:29;100471.88;;;32.01;44.76
12182;BME280;6154;51.550;12.138;2022-08-01T12:03:00;100460.84;;;31.83;45.10
12182;BME280;6154;51.550;12.138;2022-08-01T12:05:31;100469.06;;;31.52;45.31
12182;BME280;6154;51.550;12.138;2022-08-01T12:08:03;100463.63;;;31.77;45.36
12182;BME280;6154;51.550;12.138;2022-08-01T12:10:34;100463.97;;;31.87;45.11
12182;BME280;6154;51.550;12.138;2022-08-01T12:13:16;100455.09;;;31.91;45.05
12182;BME280;6154;51.550;12.138;2022-08-01T12:15:47;100456.88;;;32.04;44.75
12182;BME280;6154;51.550;12.138;2022-08-01T12:18:22;100454.03;;;32.17;44.81
12182;BME280;6154;51.550;12.138;2022-08-01T12:20:50;100454.88;;;32.18;44.85
12182;BME280;6154;51.550;12.138;2022-08-01T12:23:24;100459.41;;;31.81;44.24
12182;BME280;6154;51.550;12.138;2022-08-01T12:25:52;100449.06;;;31.51;44.74
12182;BME280;6154;51.550;12.138;2022-08-01T12:28:21;100459.41;;;31.49;45.08
12182;BME280;6154;51.550;12.138;2022-08-01T12:30:50;100460.47;;;31.03;45.72
12182;BME280;6154;51.550;12.138;2022-08-01T12:33:19;100464.59;;;31.19;45.40
12182;BME280;6154;51.550;12.138;2022-08-01T12:35:48;100457.72;;;31.03;45.62
12182;BME280;6154;51.550;12.138;2022-08-01T12:38:18;100460.13;;;31.31;45.28
12182;BME280;6154;51.550;12.138;2022-08-01T12:40:50;100465.50;;;31.51;44.42
12182;BME280;6154;51.550;12.138;2022-08-01T12:43:21;100455.47;;;31.70;44.49
12182;BME280;6154;51.550;12.138;2022-08-01T12:45:55;100455.25;;;31.96;44.05
12182;BME280;6154;51.550;12.138;2022-08-01T12:48:26;100457.06;;;32.34;43.92
12182;BME280;6154;51.550;12.138;2022-08-01T12:50:55;100465.28;;;32.52;43.42
12182;BME280;6154;51.550;12.138;2022-08-01T12:53:25;100459.72;;;32.16;43.44
12182;BME280;6154;51.550;12.138;2022-08-01T12:56:09;100463.75;;;32.13;43.65
12182;BME280;6154;51.550;12.138;2022-08-01T12:58:38;100465.38;;;32.21;43.30
12182;BME280;6154;51.550;12.138;2022-08-01T13:01:08;100460.78;;;32.15;42.87
12182;BME280;6154;51.550;12.138;2022-08-01T13:03:40;100468.19;;;32.39;42.70
12182;BME280;6154;51.550;12.138;2022-08-01T13:06:12;100469.34;;;32.50;43.03
12182;BME280;6154;51.550;12.138;2022-08-01T13:08:42;100463.13;;;32.36;42.17
12182;BME280;6154;51.550;12.138;2022-08-01T13:11:15;100460.44;;;32.73;42.06
12182;BME280;6154;51.550;12.138;2022-08-01T13:13:46;100460.75;;;33.01;42.03
12182;BME280;6154;51.550;12.138;2022-08-01T13:16:16;100462.88;;;32.99;41.93